首页
METAR-TAF:

METAR-TAF

机场 :

山胡桃, 北卡罗来纳州, 美国

纬度: 35-44-32N, 经度: 081-22-56W, 海拔: 362米

当前天气观测

该预报发布于58分钟前的19:53 UTC
风速4节,风向多变
温度 13°C
湿度 54%
气压 1015 hPa
能見度: 16.1公里
天空无云

METAR: KHKY 171953Z VRB04KT 10SM CLR 13/04 A2998 RMK AO2 SLP141 T01330044

时间: 15:51 (20:51 UTC)

预报

该预报发布于3小时和11分钟前的17:40 UTC
预报有效从17日的 18点(UTC)到 18日的 18点(UTC)
风速8节,风向东转东北
能見度: 10公里
散云层高于5000英尺
从 17日的 2300点(UTC)
风速3节,风向东转东北
能見度: 10公里
散云层高于6000英尺
从 18日的 1000点(UTC)
风速节,风向
能見度: 10公里
多云层高于2900英尺
短暂存在
从 18日的 10点(UTC)到 18日的 14点(UTC)
能見度: 8.0公里
轻雾
从 18日的 1600点(UTC)
风速3节,风向多变
能見度: 10公里
多云层高于3500英尺

TAF: KHKY 171740Z 1718/1818 06008KT P6SM SCT050 FM172300 07003KT P6SM SCT060 FM181000 00000KT P6SM BKN029 TEMPO 1810/1814 5SM BR FM181600 VRB03KT P6SM BKN035

超过4000个机场的气象观测和天气预报(METAR&TAF报告)。

可查询的气象台以黄色和红色小点在地图上表示。

将鼠标移到小点上方,可查看气象台名称。

然后点击查看天气观测和预报。

如需切换地图:点击带黑十字的绿色按钮放大地图;点击带横线的绿色按钮缩小地图;或者点击绿色箭头查看邻近地区的地图。


METAR-TAF: